sensor_id;sensor_type;location;lat;lon;timestamp;pressure;altitude;pressure_sealevel;temperature;humidity
68807;BME280;55800;54.272;18.558;2022-09-03T00:02:15;101743.28;;;10.72;53.00
68807;BME280;55800;54.272;18.558;2022-09-03T00:04:54;101748.66;;;10.70;53.28
68807;BME280;55800;54.272;18.558;2022-09-03T00:07:31;101749.63;;;10.68;53.27
68807;BME280;55800;54.272;18.558;2022-09-03T00:10:06;101747.84;;;10.67;53.40
68807;BME280;55800;54.272;18.558;2022-09-03T00:12:39;101749.66;;;10.65;53.49
68807;BME280;55800;54.272;18.558;2022-09-03T00:15:11;101744.38;;;10.63;53.37
68807;BME280;55800;54.272;18.558;2022-09-03T00:17:45;101750.66;;;10.62;53.67
68807;BME280;55800;54.272;18.558;2022-09-03T00:20:19;101754.22;;;10.61;53.68
68807;BME280;55800;54.272;18.558;2022-09-03T00:22:53;101755.13;;;10.62;54.03
68807;BME280;55800;54.272;18.558;2022-09-03T00:25:26;101738.13;;;10.63;54.32
68807;BME280;55800;54.272;18.558;2022-09-03T00:27:57;101739.94;;;10.62;54.40
68807;BME280;55800;54.272;18.558;2022-09-03T00:30:30;101735.47;;;10.63;54.54
68807;BME280;55800;54.272;18.558;2022-09-03T00:33:04;101727.44;;;10.63;54.79
68807;BME280;55800;54.272;18.558;2022-09-03T00:35:44;101732.78;;;10.64;55.24
68807;BME280;55800;54.272;18.558;2022-09-03T00:38:15;101738.13;;;10.64;55.53
68807;BME280;55800;54.272;18.558;2022-09-03T00:40:57;101737.28;;;10.62;55.17
68807;BME280;55800;54.272;18.558;2022-09-03T00:43:38;101738.19;;;10.61;55.21
68807;BME280;55800;54.272;18.558;2022-09-03T00:46:18;101740.00;;;10.59;55.07
68807;BME280;55800;54.272;18.558;2022-09-03T00:49:03;101750.72;;;10.59;55.04
68807;BME280;55800;54.272;18.558;2022-09-03T00:51:47;101732.88;;;10.58;55.11
68807;BME280;55800;54.272;18.558;2022-09-03T00:54:23;101738.22;;;10.60;55.21
68807;BME280;55800;54.272;18.558;2022-09-03T00:57:07;101740.91;;;10.60;55.05
68807;BME280;55800;54.272;18.558;2022-09-03T00:59:46;101745.38;;;10.59;55.04
68807;BME280;55800;54.272;18.558;2022-09-03T01:02:26;101732.00;;;10.59;55.06
68807;BME280;55800;54.272;18.558;2022-09-03T01:05:06;101729.31;;;10.59;55.04
68807;BME280;55800;54.272;18.558;2022-09-03T01:07:45;101736.41;;;10.60;55.04
68807;BME280;55800;54.272;18.558;2022-09-03T01:10:20;101743.53;;;10.61;54.89
68807;BME280;55800;54.272;18.558;2022-09-03T01:12:57;101755.13;;;10.62;55.03
68807;BME280;55800;54.272;18.558;2022-09-03T01:15:38;101756.00;;;10.62;55.06
68807;BME280;55800;54.272;18.558;2022-09-03T01:18:20;101752.38;;;10.63;55.09
68807;BME280;55800;54.272;18.558;2022-09-03T01:21:02;101746.97;;;10.66;55.05
68807;BME280;55800;54.272;18.558;2022-09-03T01:23:55;101749.63;;;10.68;55.02
68807;BME280;55800;54.272;18.558;2022-09-03T01:26:48;101754.91;;;10.71;55.05
68807;BME280;55800;54.272;18.558;2022-09-03T01:29:30;101758.38;;;10.74;55.10
68807;BME280;55800;54.272;18.558;2022-09-03T01:32:10;101766.31;;;10.77;55.13
68807;BME280;55800;54.272;18.558;2022-09-03T01:34:52;101768.00;;;10.81;55.14
68807;BME280;55800;54.272;18.558;2022-09-03T01:37:34;101775.03;;;10.85;55.09
68807;BME280;55800;54.272;18.558;2022-09-03T01:40:14;101774.94;;;10.88;55.20
68807;BME280;55800;54.272;18.558;2022-09-03T01:42:55;101767.75;;;10.92;55.25
68807;BME280;55800;54.272;18.558;2022-09-03T01:45:36;101757.88;;;10.94;55.23
68807;BME280;55800;54.272;18.558;2022-09-03T01:51:19;101760.28;;;11.05;55.40
68807;BME280;55800;54.272;18.558;2022-09-03T01:54:12;101769.06;;;11.10;55.58
68807;BME280;55800;54.272;18.558;2022-09-03T01:57:23;101775.19;;;11.15;55.79
68807;BME280;55800;54.272;18.558;2022-09-03T02:00:07;101770.56;;;11.20;56.44
68807;BME280;55800;54.272;18.558;2022-09-03T02:02:43;101776.69;;;11.25;56.58
68807;BME280;55800;54.272;18.558;2022-09-03T02:05:16;101781.03;;;11.29;56.49
68807;BME280;55800;54.272;18.558;2022-09-03T02:07:48;101772.06;;;11.31;56.63
68807;BME280;55800;54.272;18.558;2022-09-03T02:10:21;101760.41;;;11.34;56.66
68807;BME280;55800;54.272;18.558;2022-09-03T02:12:57;101766.53;;;11.37;56.47
68807;BME280;55800;54.272;18.558;2022-09-03T02:15:28;101767.34;;;11.41;56.72
68807;BME280;55800;54.272;18.558;2022-09-03T02:18:03;101763.66;;;11.45;56.60
68807;BME280;55800;54.272;18.558;2022-09-03T02:20:34;101766.25;;;11.48;56.58
68807;BME280;55800;54.272;18.558;2022-09-03T02:23:05;101760.81;;;11.51;56.47
68807;BME280;55800;54.272;18.558;2022-09-03T02:25:37;101752.69;;;11.54;56.74
68807;BME280;55800;54.272;18.558;2022-09-03T02:28:08;101754.41;;;11.56;56.72
68807;BME280;55800;54.272;18.558;2022-09-03T02:30:44;101749.84;;;11.60;57.29
68807;BME280;55800;54.272;18.558;2022-09-03T02:33:16;101750.63;;;11.63;57.22
68807;BME280;55800;54.272;18.558;2022-09-03T02:35:45;101755.91;;;11.66;57.47
68807;BME280;55800;54.272;18.558;2022-09-03T02:38:17;101760.31;;;11.69;57.39
68807;BME280;55800;54.272;18.558;2022-09-03T02:40:47;101760.25;;;11.72;57.11
68807;BME280;55800;54.272;18.558;2022-09-03T02:43:21;101765.50;;;11.75;56.89
68807;BME280;55800;54.272;18.558;2022-09-03T02:45:56;101753.88;;;11.76;56.97
68807;BME280;55800;54.272;18.558;2022-09-03T02:48:29;101757.31;;;11.81;56.83
68807;BME280;55800;54.272;18.558;2022-09-03T02:50:58;101755.53;;;11.80;56.71
68807;BME280;55800;54.272;18.558;2022-09-03T02:53:27;101758.16;;;11.83;56.75
68807;BME280;55800;54.272;18.558;2022-09-03T02:56:00;101759.84;;;11.86;56.64
68807;BME280;55800;54.272;18.558;2022-09-03T02:58:30;101751.78;;;11.87;56.75
68807;BME280;55800;54.272;18.558;2022-09-03T03:00:59;101748.97;;;11.90;56.75
68807;BME280;55800;54.272;18.558;2022-09-03T03:03:30;101744.44;;;11.92;56.66
68807;BME280;55800;54.272;18.558;2022-09-03T03:06:01;101745.28;;;11.94;56.58
68807;BME280;55800;54.272;18.558;2022-09-03T03:08:31;101746.16;;;11.95;56.61
68807;BME280;55800;54.272;18.558;2022-09-03T03:11:17;101739.84;;;11.97;56.46
68807;BME280;55800;54.272;18.558;2022-09-03T03:13:48;101733.53;;;11.98;56.58
68807;BME280;55800;54.272;18.558;2022-09-03T03:16:17;101744.19;;;12.01;56.55
68807;BME280;55800;54.272;18.558;2022-09-03T03:18:47;101750.44;;;12.02;56.46
68807;BME280;55800;54.272;18.558;2022-09-03T03:21:18;101745.06;;;12.02;56.57
68807;BME280;55800;54.272;18.558;2022-09-03T03:23:48;101745.97;;;12.02;56.40
68807;BME280;55800;54.272;18.558;2022-09-03T03:26:19;101740.59;;;12.02;56.38
68807;BME280;55800;54.272;18.558;2022-09-03T03:28:56;101747.69;;;12.03;56.26
68807;BME280;55800;54.272;18.558;2022-09-03T03:31:26;101748.66;;;12.02;56.34
68807;BME280;55800;54.272;18.558;2022-09-03T03:33:59;101758.47;;;12.02;56.22
68807;BME280;55800;54.272;18.558;2022-09-03T03:36:30;101753.13;;;12.02;56.23
68807;BME280;55800;54.272;18.558;2022-09-03T03:39:00;101758.47;;;12.02;56.22
68807;BME280;55800;54.272;18.558;2022-09-03T03:41:31;101757.66;;;12.00;56.22
68807;BME280;55800;54.272;18.558;2022-09-03T03:44:02;101755.84;;;12.00;56.14
68807;BME280;55800;54.272;18.558;2022-09-03T03:46:34;101765.63;;;12.01;56.15
68807;BME280;55800;54.272;18.558;2022-09-03T03:49:06;101766.56;;;12.00;56.17
68807;BME280;55800;54.272;18.558;2022-09-03T03:51:36;101756.72;;;12.01;56.11
68807;BME280;55800;54.272;18.558;2022-09-03T03:54:06;101754.97;;;12.00;56.11
68807;BME280;55800;54.272;18.558;2022-09-03T03:56:35;101756.72;;;12.01;56.10
68807;BME280;55800;54.272;18.558;2022-09-03T03:59:04;101754.97;;;12.00;56.17
68807;BME280;55800;54.272;18.558;2022-09-03T04:01:33;101761.22;;;12.00;55.93
68807;BME280;55800;54.272;18.558;2022-09-03T04:04:04;101756.75;;;11.99;56.10
68807;BME280;55800;54.272;18.558;2022-09-03T04:06:33;101755.00;;;11.98;56.10
68807;BME280;55800;54.272;18.558;2022-09-03T04:09:03;101756.81;;;11.98;56.09
68807;BME280;55800;54.272;18.558;2022-09-03T04:11:32;101757.72;;;11.97;56.04
68807;BME280;55800;54.272;18.558;2022-09-03T04:14:02;101756.84;;;11.96;55.99
68807;BME280;55800;54.272;18.558;2022-09-03T04:16:31;101764.03;;;11.94;55.89
68807;BME280;55800;54.272;18.558;2022-09-03T04:19:00;101757.84;;;11.92;55.83
68807;BME280;55800;54.272;18.558;2022-09-03T04:21:31;101756.13;;;11.91;55.73
68807;BME280;55800;54.272;18.558;2022-09-03T04:24:02;101753.50;;;11.88;55.67
68807;BME280;55800;54.272;18.558;2022-09-03T04:26:32;101755.34;;;11.86;55.75
68807;BME280;55800;54.272;18.558;2022-09-03T04:29:04;101763.50;;;11.83;55.73
68807;BME280;55800;54.272;18.558;2022-09-03T04:31:35;101763.56;;;11.80;55.74
68807;BME280;55800;54.272;18.558;2022-09-03T04:34:05;101761.84;;;11.77;55.73
68807;BME280;55800;54.272;18.558;2022-09-03T04:36:35;101761.09;;;11.74;55.50
68807;BME280;55800;54.272;18.558;2022-09-03T04:39:04;101766.50;;;11.71;55.68
68807;BME280;55800;54.272;18.558;2022-09-03T04:41:33;101777.28;;;11.69;55.60
68807;BME280;55800;54.272;18.558;2022-09-03T04:44:03;101772.00;;;11.66;55.65
68807;BME280;55800;54.272;18.558;2022-09-03T04:46:32;101767.59;;;11.64;55.54
68807;BME280;55800;54.272;18.558;2022-09-03T04:49:02;101762.31;;;11.61;55.41
68807;BME280;55800;54.272;18.558;2022-09-03T04:51:31;101765.94;;;11.58;55.36
68807;BME280;55800;54.272;18.558;2022-09-03T04:54:02;101760.72;;;11.54;55.44
68807;BME280;55800;54.272;18.558;2022-09-03T04:56:33;101772.41;;;11.51;55.44
68807;BME280;55800;54.272;18.558;2022-09-03T04:59:05;101768.03;;;11.47;55.42
68807;BME280;55800;54.272;18.558;2022-09-03T05:01:37;101773.50;;;11.44;55.38
68807;BME280;55800;54.272;18.558;2022-09-03T05:04:07;101765.53;;;11.41;55.35
68807;BME280;55800;54.272;18.558;2022-09-03T05:06:37;101771.84;;;11.39;55.40
68807;BME280;55800;54.272;18.558;2022-09-03T05:09:07;101771.00;;;11.37;55.36
68807;BME280;55800;54.272;18.558;2022-09-03T05:11:36;101782.66;;;11.36;55.49
68807;BME280;55800;54.272;18.558;2022-09-03T05:14:06;101779.13;;;11.34;55.53
68807;BME280;55800;54.272;18.558;2022-09-03T05:16:38;101786.22;;;11.35;55.67
68807;BME280;55800;54.272;18.558;2022-09-03T05:19:08;101780.88;;;11.35;55.68
68807;BME280;55800;54.272;18.558;2022-09-03T05:21:38;101775.53;;;11.35;55.80
68807;BME280;55800;54.272;18.558;2022-09-03T05:24:08;101778.19;;;11.36;55.86
68807;BME280;55800;54.272;18.558;2022-09-03T05:26:39;101780.81;;;11.38;55.85
68807;BME280;55800;54.272;18.558;2022-09-03T05:29:08;101771.84;;;11.39;56.10
68807;BME280;55800;54.272;18.558;2022-09-03T05:31:38;101773.63;;;11.40;56.29
68807;BME280;55800;54.272;18.558;2022-09-03T05:34:08;101783.41;;;11.41;56.32
68807;BME280;55800;54.272;18.558;2022-09-03T05:36:43;101778.00;;;11.42;56.23
68807;BME280;55800;54.272;18.558;2022-09-03T05:39:17;101780.63;;;11.44;56.33
68807;BME280;55800;54.272;18.558;2022-09-03T05:41:46;101785.94;;;11.47;56.42
68807;BME280;55800;54.272;18.558;2022-09-03T05:44:20;101786.72;;;11.50;56.62
68807;BME280;55800;54.272;18.558;2022-09-03T05:46:50;101786.59;;;11.55;56.78
68807;BME280;55800;54.272;18.558;2022-09-03T05:49:20;101786.47;;;11.59;56.95
68807;BME280;55800;54.272;18.558;2022-09-03T05:51:49;101782.72;;;11.65;57.07
68807;BME280;55800;54.272;18.558;2022-09-03T05:54:19;101788.84;;;11.71;57.01
68807;BME280;55800;54.272;18.558;2022-09-03T05:56:48;101789.50;;;11.80;57.30
68807;BME280;55800;54.272;18.558;2022-09-03T05:59:18;101792.94;;;11.85;57.29
68807;BME280;55800;54.272;18.558;2022-09-03T06:01:47;101784.72;;;11.91;57.27
68807;BME280;55800;54.272;18.558;2022-09-03T06:04:20;101784.47;;;11.98;57.25
68807;BME280;55800;54.272;18.558;2022-09-03T06:06:49;101795.88;;;12.06;57.29
68807;BME280;55800;54.272;18.558;2022-09-03T06:09:20;101784.03;;;12.13;57.34
68807;BME280;55800;54.272;18.558;2022-09-03T06:11:51;101787.38;;;12.21;57.51
68807;BME280;55800;54.272;18.558;2022-09-03T06:14:20;101780.94;;;12.27;57.58
68807;BME280;55800;54.272;18.558;2022-09-03T06:16:50;101777.09;;;12.35;57.64
68807;BME280;55800;54.272;18.558;2022-09-03T06:19:20;101771.53;;;12.41;57.64
68807;BME280;55800;54.272;18.558;2022-09-03T06:21:49;101768.66;;;12.47;57.70
68807;BME280;55800;54.272;18.558;2022-09-03T06:24:20;101775.59;;;12.54;57.77
68807;BME280;55800;54.272;18.558;2022-09-03T06:26:55;101775.41;;;12.61;57.70
68807;BME280;55800;54.272;18.558;2022-09-03T06:29:24;101778.72;;;12.69;57.70
68807;BME280;55800;54.272;18.558;2022-09-03T06:31:53;101782.09;;;12.75;57.92
68807;BME280;55800;54.272;18.558;2022-09-03T06:34:25;101789.94;;;12.81;57.81
68807;BME280;55800;54.272;18.558;2022-09-03T06:36:55;101786.13;;;12.88;57.99
68807;BME280;55800;54.272;18.558;2022-09-03T06:39:26;101783.19;;;12.96;58.02
68807;BME280;55800;54.272;18.558;2022-09-03T06:41:55;101795.44;;;13.06;58.11
68807;BME280;55800;54.272;18.558;2022-09-03T06:44:34;101793.28;;;13.15;58.25
68807;BME280;55800;54.272;18.558;2022-09-03T06:47:03;101800.09;;;13.25;58.16
68807;BME280;55800;54.272;18.558;2022-09-03T06:49:32;101794.25;;;13.39;58.44
68807;BME280;55800;54.272;18.558;2022-09-03T06:52:01;101800.97;;;13.52;58.47
68807;BME280;55800;54.272;18.558;2022-09-03T06:54:32;101790.66;;;13.65;58.49
68807;BME280;55800;54.272;18.558;2022-09-03T06:57:01;101795.59;;;13.77;58.48
68807;BME280;55800;54.272;18.558;2022-09-03T06:59:30;101792.50;;;13.87;58.56
68807;BME280;55800;54.272;18.558;2022-09-03T07:01:59;101793.97;;;13.96;58.43
68807;BME280;55800;54.272;18.558;2022-09-03T07:04:30;101799.09;;;14.03;58.53
68807;BME280;55800;54.272;18.558;2022-09-03T07:07:02;101805.13;;;14.10;58.36
68807;BME280;55800;54.272;18.558;2022-09-03T07:09:33;101804.00;;;14.16;58.38
68807;BME280;55800;54.272;18.558;2022-09-03T07:12:05;101804.72;;;14.21;58.21
68807;BME280;55800;54.272;18.558;2022-09-03T07:14:34;101804.56;;;14.24;58.28
68807;BME280;55800;54.272;18.558;2022-09-03T07:17:03;101803.53;;;14.28;58.08
68807;BME280;55800;54.272;18.558;2022-09-03T07:19:32;101814.22;;;14.31;57.97
68807;BME280;55800;54.272;18.558;2022-09-03T07:22:01;101815.84;;;14.35;57.92
68807;BME280;55800;54.272;18.558;2022-09-03T07:24:30;101818.44;;;14.38;57.92
68807;BME280;55800;54.272;18.558;2022-09-03T07:27:01;101812.00;;;14.42;58.05
68807;BME280;55800;54.272;18.558;2022-09-03T07:29:32;101815.38;;;14.47;57.98
68807;BME280;55800;54.272;18.558;2022-09-03T07:32:01;101807.03;;;14.53;58.10
68807;BME280;55800;54.272;18.558;2022-09-03T07:34:30;101811.25;;;14.60;57.97
68807;BME280;55800;54.272;18.558;2022-09-03T07:37:03;101819.06;;;14.67;58.16
68807;BME280;55800;54.272;18.558;2022-09-03T07:39:33;101810.66;;;14.75;58.06
68807;BME280;55800;54.272;18.558;2022-09-03T07:42:04;101816.53;;;14.84;58.28
68807;BME280;55800;54.272;18.558;2022-09-03T07:44:37;101806.28;;;14.94;58.43
68807;BME280;55800;54.272;18.558;2022-09-03T07:47:06;101812.16;;;15.04;58.30
68807;BME280;55800;54.272;18.558;2022-09-03T07:49:35;101813.53;;;15.14;58.53
68807;BME280;55800;54.272;18.558;2022-09-03T07:52:05;101814.81;;;15.25;58.64
68807;BME280;55800;54.272;18.558;2022-09-03T07:54:39;101817.03;;;15.37;58.61
68807;BME280;55800;54.272;18.558;2022-09-03T07:57:10;101822.84;;;15.48;58.79
68807;BME280;55800;54.272;18.558;2022-09-03T07:59:39;101813.38;;;15.60;58.56
68807;BME280;55800;54.272;18.558;2022-09-03T08:02:08;101827.19;;;15.73;58.48
68807;BME280;55800;54.272;18.558;2022-09-03T08:04:37;101826.63;;;15.85;58.64
68807;BME280;55800;54.272;18.558;2022-09-03T08:07:08;101832.34;;;15.97;58.73
68807;BME280;55800;54.272;18.558;2022-09-03T08:09:36;101830.94;;;16.09;58.59
68807;BME280;55800;54.272;18.558;2022-09-03T08:12:06;101827.75;;;16.19;58.78
68807;BME280;55800;54.272;18.558;2022-09-03T08:14:36;101828.97;;;16.31;58.63
68807;BME280;55800;54.272;18.558;2022-09-03T08:17:06;101828.44;;;16.43;58.56
68807;BME280;55800;54.272;18.558;2022-09-03T08:19:35;101836.91;;;16.54;58.82
68807;BME280;55800;54.272;18.558;2022-09-03T08:22:04;101834.59;;;16.65;58.79
68807;BME280;55800;54.272;18.558;2022-09-03T08:24:33;101839.44;;;16.77;58.70
68807;BME280;55800;54.272;18.558;2022-09-03T08:27:02;101831.66;;;16.88;58.85
68807;BME280;55800;54.272;18.558;2022-09-03T08:29:32;101830.09;;;17.01;58.93
68807;BME280;55800;54.272;18.558;2022-09-03T08:32:03;101824.03;;;17.15;58.82
68807;BME280;55800;54.272;18.558;2022-09-03T08:34:32;101826.91;;;17.29;58.62
68807;BME280;55800;54.272;18.558;2022-09-03T08:37:02;101827.16;;;17.42;58.77
68807;BME280;55800;54.272;18.558;2022-09-03T08:39:32;101830.09;;;17.56;58.40
68807;BME280;55800;54.272;18.558;2022-09-03T08:42:17;101828.56;;;17.67;58.24
68807;BME280;55800;54.272;18.558;2022-09-03T08:44:52;101829.66;;;17.80;58.01
68807;BME280;55800;54.272;18.558;2022-09-03T08:47:28;101833.63;;;17.90;57.77
68807;BME280;55800;54.272;18.558;2022-09-03T08:50:02;101836.75;;;18.00;57.99
68807;BME280;55800;54.272;18.558;2022-09-03T08:52:39;101839.13;;;18.06;57.94
68807;BME280;55800;54.272;18.558;2022-09-03T08:55:18;101841.41;;;18.14;57.49
68807;BME280;55800;54.272;18.558;2022-09-03T08:57:52;101843.75;;;18.20;57.30
68807;BME280;55800;54.272;18.558;2022-09-03T09:00:23;101846.22;;;18.24;57.22
68807;BME280;55800;54.272;18.558;2022-09-03T09:03:05;101840.56;;;18.29;57.29
68807;BME280;55800;54.272;18.558;2022-09-03T09:05:42;101841.22;;;18.34;57.28
68807;BME280;55800;54.272;18.558;2022-09-03T09:08:20;101837.53;;;18.35;57.20
68807;BME280;55800;54.272;18.558;2022-09-03T09:10:58;101837.38;;;18.38;56.79
68807;BME280;55800;54.272;18.558;2022-09-03T09:13:33;101851.69;;;18.40;56.59
68807;BME280;55800;54.272;18.558;2022-09-03T09:16:14;101849.00;;;18.40;56.71
68807;BME280;55800;54.272;18.558;2022-09-03T09:18:59;101852.59;;;18.40;56.60
68807;BME280;55800;54.272;18.558;2022-09-03T09:21:36;101846.28;;;18.40;56.36
68807;BME280;55800;54.272;18.558;2022-09-03T09:24:20;101845.41;;;18.39;56.48
68807;BME280;55800;54.272;18.558;2022-09-03T09:26:54;101852.63;;;18.39;56.03
68807;BME280;55800;54.272;18.558;2022-09-03T09:29:28;101842.78;;;18.38;56.22
68807;BME280;55800;54.272;18.558;2022-09-03T09:31:59;101847.31;;;18.37;56.21
68807;BME280;55800;54.272;18.558;2022-09-03T09:34:33;101843.72;;;18.37;56.30
68807;BME280;55800;54.272;18.558;2022-09-03T09:37:07;101843.72;;;18.37;56.12
68807;BME280;55800;54.272;18.558;2022-09-03T09:39:38;101839.28;;;18.36;55.89
68807;BME280;55800;54.272;18.558;2022-09-03T09:42:10;101842.00;;;18.36;56.01
68807;BME280;55800;54.272;18.558;2022-09-03T09:44:41;101842.94;;;18.35;55.74
68807;BME280;55800;54.272;18.558;2022-09-03T09:47:20;101849.25;;;18.35;55.73
68807;BME280;55800;54.272;18.558;2022-09-03T09:49:56;101845.66;;;18.35;55.98
68807;BME280;55800;54.272;18.558;2022-09-03T09:52:28;101842.09;;;18.34;55.66
68807;BME280;55800;54.272;18.558;2022-09-03T09:55:07;101842.94;;;18.35;55.58
68807;BME280;55800;54.272;18.558;2022-09-03T09:57:36;101850.22;;;18.34;55.63
68807;BME280;55800;54.272;18.558;2022-09-03T10:00:09;101842.94;;;18.35;55.75
68807;BME280;55800;54.272;18.558;2022-09-03T10:02:47;101842.09;;;18.34;55.73
68807;BME280;55800;54.272;18.558;2022-09-03T10:05:23;101834.75;;;18.36;55.45
68807;BME280;55800;54.272;18.558;2022-09-03T10:07:56;101833.78;;;18.37;55.67
68807;BME280;55800;54.272;18.558;2022-09-03T10:10:27;101843.66;;;18.38;55.58
68807;BME280;55800;54.272;18.558;2022-09-03T10:13:05;101841.75;;;18.40;55.55
68807;BME280;55800;54.272;18.558;2022-09-03T10:15:40;101828.03;;;18.43;55.71
68807;BME280;55800;54.272;18.558;2022-09-03T10:18:16;101836.03;;;18.46;55.72
68807;BME280;55800;54.272;18.558;2022-09-03T10:21:01;101842.13;;;18.50;55.26
68807;BME280;55800;54.272;18.558;2022-09-03T10:23:39;101844.69;;;18.53;55.32
68807;BME280;55800;54.272;18.558;2022-09-03T10:26:19;101837.25;;;18.56;55.18
68807;BME280;55800;54.272;18.558;2022-09-03T10:29:00;101839.81;;;18.59;55.28
68807;BME280;55800;54.272;18.558;2022-09-03T10:31:45;101836.91;;;18.62;55.33
68807;BME280;55800;54.272;18.558;2022-09-03T10:34:24;101824.25;;;18.63;55.39
68807;BME280;55800;54.272;18.558;2022-09-03T10:37:13;101823.22;;;18.65;55.31
68807;BME280;55800;54.272;18.558;2022-09-03T10:39:55;101830.34;;;18.66;55.35
68807;BME280;55800;54.272;18.558;2022-09-03T10:42:38;101823.09;;;18.67;55.16
68807;BME280;55800;54.272;18.558;2022-09-03T10:45:18;101821.19;;;18.69;55.30
68807;BME280;55800;54.272;18.558;2022-09-03T10:48:21;101818.38;;;18.70;55.09
68807;BME280;55800;54.272;18.558;2022-09-03T10:50:56;101820.16;;;18.72;54.97
68807;BME280;55800;54.272;18.558;2022-09-03T10:53:48;101827.28;;;18.73;54.97
68807;BME280;55800;54.272;18.558;2022-09-03T10:56:24;101822.69;;;18.75;54.93
68807;BME280;55800;54.272;18.558;2022-09-03T10:59:09;101818.06;;;18.77;54.96
68807;BME280;55800;54.272;18.558;2022-09-03T11:01:48;101815.16;;;18.80;54.70
68807;BME280;55800;54.272;18.558;2022-09-03T11:04:27;101819.44;;;18.84;54.68
68807;BME280;55800;54.272;18.558;2022-09-03T11:07:06;101797.59;;;18.87;54.92
68807;BME280;55800;54.272;18.558;2022-09-03T11:09:40;101810.00;;;18.91;54.71
68807;BME280;55800;54.272;18.558;2022-09-03T11:12:15;101804.44;;;18.94;54.74
68807;BME280;55800;54.272;18.558;2022-09-03T11:14:52;101799.69;;;18.97;54.67
68807;BME280;55800;54.272;18.558;2022-09-03T11:17:25;101799.44;;;19.02;54.95
68807;BME280;55800;54.272;18.558;2022-09-03T11:20:07;101805.44;;;19.07;54.56
68807;BME280;55800;54.272;18.558;2022-09-03T11:22:39;101801.69;;;19.09;54.52
68807;BME280;55800;54.272;18.558;2022-09-03T11:25:11;101799.47;;;19.16;54.38
68807;BME280;55800;54.272;18.558;2022-09-03T11:27:55;101804.75;;;19.19;54.15
68807;BME280;55800;54.272;18.558;2022-09-03T11:30:38;101800.09;;;19.21;54.22
68807;BME280;55800;54.272;18.558;2022-09-03T11:33:12;101800.00;;;19.22;54.11
68807;BME280;55800;54.272;18.558;2022-09-03T11:35:42;101790.91;;;19.23;54.28
68807;BME280;55800;54.272;18.558;2022-09-03T11:38:20;101793.69;;;19.22;54.32
68807;BME280;55800;54.272;18.558;2022-09-03T11:41:10;101796.34;;;19.23;54.17
68807;BME280;55800;54.272;18.558;2022-09-03T11:43:41;101797.13;;;19.25;53.97
68807;BME280;55800;54.272;18.558;2022-09-03T11:46:26;101786.16;;;19.27;54.01
68807;BME280;55800;54.272;18.558;2022-09-03T11:48:56;101785.00;;;19.31;54.31
68807;BME280;55800;54.272;18.558;2022-09-03T11:51:38;101791.09;;;19.36;54.22
68807;BME280;55800;54.272;18.558;2022-09-03T11:54:24;101784.31;;;19.43;54.24
68807;BME280;55800;54.272;18.558;2022-09-03T11:57:09;101783.94;;;19.49;54.21
68807;BME280;55800;54.272;18.558;2022-09-03T11:59:41;101786.47;;;19.52;54.10
68807;BME280;55800;54.272;18.558;2022-09-03T12:02:23;101793.34;;;19.58;54.37
68807;BME280;55800;54.272;18.558;2022-09-03T12:05:19;101791.34;;;19.61;54.16
68807;BME280;55800;54.272;18.558;2022-09-03T12:11:15;101782.44;;;19.59;53.93
68807;BME280;55800;54.272;18.558;2022-09-03T12:13:57;101784.38;;;19.57;54.08
68807;BME280;55800;54.272;18.558;2022-09-03T12:16:49;101787.94;;;19.58;53.89
68807;BME280;55800;54.272;18.558;2022-09-03T12:19:27;101778.94;;;19.57;53.67
68807;BME280;55800;54.272;18.558;2022-09-03T12:21:59;101778.94;;;19.57;53.67
68807;BME280;55800;54.272;18.558;2022-09-03T12:24:32;101768.09;;;19.57;52.87
68807;BME280;55800;54.272;18.558;2022-09-03T12:27:05;101772.63;;;19.57;53.07
68807;BME280;55800;54.272;18.558;2022-09-03T12:29:39;101780.66;;;19.58;52.88
68807;BME280;55800;54.272;18.558;2022-09-03T12:32:18;101768.94;;;19.58;53.07
68807;BME280;55800;54.272;18.558;2022-09-03T12:34:51;101772.53;;;19.58;53.16
68807;BME280;55800;54.272;18.558;2022-09-03T12:37:21;101776.13;;;19.59;53.28
68807;BME280;55800;54.272;18.558;2022-09-03T12:40:19;101768.09;;;19.57;52.95
68807;BME280;55800;54.272;18.558;2022-09-03T12:42:50;101769.94;;;19.57;52.79
68807;BME280;55800;54.272;18.558;2022-09-03T12:45:23;101767.22;;;19.57;52.97
68807;BME280;55800;54.272;18.558;2022-09-03T12:47:52;101763.63;;;19.56;52.84
68807;BME280;55800;54.272;18.558;2022-09-03T12:50:23;101771.75;;;19.56;52.77
68807;BME280;55800;54.272;18.558;2022-09-03T12:52:54;101761.88;;;19.55;52.83
68807;BME280;55800;54.272;18.558;2022-09-03T12:55:31;101759.19;;;19.55;52.64
68807;BME280;55800;54.272;18.558;2022-09-03T12:58:06;101758.28;;;19.55;52.13
68807;BME280;55800;54.272;18.558;2022-09-03T13:00:45;101766.53;;;19.53;52.24
68807;BME280;55800;54.272;18.558;2022-09-03T13:03:20;101754.81;;;19.53;52.22
68807;BME280;55800;54.272;18.558;2022-09-03T13:05:55;101745.00;;;19.50;52.52
68807;BME280;55800;54.272;18.558;2022-09-03T13:08:29;101755.84;;;19.50;52.36
68807;BME280;55800;54.272;18.558;2022-09-03T13:11:03;101750.53;;;19.49;51.98
68807;BME280;55800;54.272;18.558;2022-09-03T13:13:34;101741.50;;;19.48;52.14
68807;BME280;55800;54.272;18.558;2022-09-03T13:19:08;101730.94;;;19.43;51.54
68807;BME280;55800;54.272;18.558;2022-09-03T13:21:49;101727.34;;;19.43;51.71
68807;BME280;55800;54.272;18.558;2022-09-03T13:24:45;101735.59;;;19.41;51.73
68807;BME280;55800;54.272;18.558;2022-09-03T13:27:27;101737.34;;;19.42;51.90